createdAt,value
2018-02-03T00:01:39.623Z,8.60
2018-02-03T00:04:07.198Z,11.97
2018-02-03T00:06:34.825Z,14.00
2018-02-03T00:09:03.148Z,11.60
2018-02-03T00:11:31.528Z,13.27
2018-02-03T00:13:59.116Z,13.17
2018-02-03T00:16:26.713Z,10.10
2018-02-03T00:18:54.292Z,13.63
2018-02-03T00:21:21.865Z,11.67
2018-02-03T00:23:49.510Z,12.30
2018-02-03T00:26:17.089Z,12.70
2018-02-03T00:28:44.693Z,12.33
2018-02-03T00:31:13.059Z,12.17
2018-02-03T00:33:41.452Z,11.43
2018-02-03T00:36:09.804Z,9.27
2018-02-03T00:38:37.413Z,9.90
2018-02-03T00:41:04.996Z,8.80
2018-02-03T00:43:32.617Z,9.27
2018-02-03T00:46:00.969Z,8.90
2018-02-03T00:48:28.561Z,8.03
2018-02-03T00:50:56.145Z,10.43
2018-02-03T00:53:23.746Z,7.60
2018-02-03T00:55:51.362Z,7.30
2018-02-03T00:58:18.978Z,8.47
2018-02-03T01:00:46.569Z,10.17
2018-02-03T01:03:14.158Z,7.23
2018-02-03T01:05:41.736Z,10.37
2018-02-03T01:08:09.341Z,10.00
2018-02-03T01:10:36.936Z,10.07
2018-02-03T01:13:05.357Z,10.17
2018-02-03T01:15:32.937Z,7.33
2018-02-03T01:18:00.532Z,9.40
2018-02-03T01:20:28.185Z,7.40
2018-02-03T01:22:55.799Z,8.80
2018-02-03T01:25:23.408Z,7.60
2018-02-03T01:27:51.021Z,8.53
2018-02-03T01:30:18.585Z,6.40
2018-02-03T01:32:46.959Z,7.70
2018-02-03T01:35:14.526Z,9.10
2018-02-03T01:37:42.941Z,9.13
2018-02-03T01:40:10.556Z,7.13
2018-02-03T01:42:38.152Z,9.60
2018-02-03T01:45:05.746Z,11.07
2018-02-03T01:47:45.172Z,8.90
2018-02-03T01:50:12.820Z,9.10
2018-02-03T01:52:40.449Z,8.40
2018-02-03T01:55:08.792Z,11.07
2018-02-03T01:57:36.461Z,11.27
2018-02-03T02:00:04.064Z,12.90
2018-02-03T02:02:31.664Z,9.90
2018-02-03T02:04:59.265Z,10.33
2018-02-03T02:07:27.672Z,8.70
2018-02-03T02:09:55.260Z,9.33
2018-02-03T02:12:22.841Z,9.40
2018-02-03T02:14:50.438Z,7.50
2018-02-03T02:17:18.013Z,8.00
2018-02-03T02:19:45.612Z,8.03
2018-02-03T02:22:13.217Z,8.80
2018-02-03T02:24:41.573Z,7.93
2018-02-03T02:27:09.137Z,7.80
2018-02-03T02:29:36.709Z,8.03
2018-02-03T02:32:05.054Z,11.77
2018-02-03T02:34:32.677Z,10.10
2018-02-03T02:37:00.284Z,11.30
2018-02-03T02:39:28.135Z,11.47
2018-02-03T02:41:55.765Z,8.67
2018-02-03T02:44:23.366Z,10.30
2018-02-03T02:46:50.941Z,12.07
2018-02-03T02:49:18.547Z,13.33
2018-02-03T02:51:46.187Z,14.27
2018-02-03T02:54:13.812Z,13.70
2018-02-03T02:56:41.408Z,13.30
2018-02-03T02:59:09.029Z,12.73
2018-02-03T03:01:36.615Z,11.43
2018-02-03T03:04:04.961Z,11.97
2018-02-03T03:06:32.564Z,18.27
2018-02-03T03:09:00.186Z,16.47
2018-02-03T03:11:27.768Z,12.43
2018-02-03T03:13:56.141Z,10.07
2018-02-03T03:16:24.508Z,11.43
2018-02-03T03:18:52.341Z,12.73
2018-02-03T03:21:19.943Z,14.77
2018-02-03T03:23:48.308Z,14.93
2018-02-03T03:26:15.957Z,10.87
2018-02-03T03:28:43.545Z,13.30
2018-02-03T03:31:11.932Z,14.23
2018-02-03T03:33:40.362Z,15.70
2018-02-03T03:36:07.963Z,17.57
2018-02-03T03:38:36.351Z,14.57
2018-02-03T03:41:04.730Z,15.33
2018-02-03T03:43:33.092Z,12.73
2018-02-03T03:46:00.681Z,12.73
2018-02-03T03:48:29.044Z,13.90
2018-02-03T03:50:57.485Z,11.30
2018-02-03T03:53:25.089Z,13.20
2018-02-03T03:55:53.456Z,10.53
2018-02-03T03:58:21.024Z,11.07
2018-02-03T04:00:49.381Z,10.83
2018-02-03T04:03:16.961Z,13.63
2018-02-03T04:05:45.338Z,14.07
2018-02-03T04:08:13.686Z,11.13
2018-02-03T04:10:41.280Z,13.90
2018-02-03T04:13:09.624Z,12.80
2018-02-03T04:15:37.233Z,11.50
2018-02-03T04:18:04.836Z,14.93
2018-02-03T04:20:32.536Z,13.10
2018-02-03T04:23:00.903Z,12.80
2018-02-03T04:25:28.920Z,12.10
2018-02-03T04:27:56.524Z,12.43
2018-02-03T04:30:24.096Z,12.43
2018-02-03T04:32:51.804Z,7.70
2018-02-03T04:35:19.381Z,8.40
2018-02-03T04:37:46.970Z,9.33
2018-02-03T04:40:14.617Z,9.80
2018-02-03T04:42:42.200Z,9.27
2018-02-03T04:45:09.853Z,10.13
2018-02-03T04:47:37.455Z,10.00
2018-02-03T04:50:05.057Z,7.50
2018-02-03T04:52:32.664Z,10.70
2018-02-03T04:55:01.086Z,7.43
2018-02-03T04:57:28.661Z,9.07
2018-02-03T04:59:56.236Z,9.00
2018-02-03T05:02:23.976Z,9.73
2018-02-03T05:04:51.553Z,11.50
2018-02-03T05:07:19.152Z,13.07
2018-02-03T05:09:46.803Z,9.70
2018-02-03T05:12:15.137Z,10.40
2018-02-03T05:14:42.735Z,11.37
2018-02-03T05:19:37.129Z,11.67
2018-02-03T05:22:05.481Z,9.70
2018-02-03T05:24:33.077Z,10.60
2018-02-03T05:27:00.663Z,9.07
2018-02-03T05:29:28.272Z,10.53
2018-02-03T05:31:55.902Z,15.40
2018-02-03T05:34:23.486Z,11.47
2018-02-03T05:36:51.518Z,11.17
2018-02-03T05:39:19.109Z,12.77
2018-02-03T05:41:46.717Z,9.87
2018-02-03T05:44:14.345Z,11.10
2018-02-03T05:46:41.944Z,10.53
2018-02-03T05:49:09.520Z,12.30
2018-02-03T05:51:37.099Z,12.20
2018-02-03T05:54:04.698Z,14.00
2018-02-03T05:56:33.053Z,11.83
2018-02-03T05:59:00.670Z,12.80
2018-02-03T06:01:28.250Z,11.73
2018-02-03T06:03:55.868Z,13.37
2018-02-03T06:06:24.200Z,11.07
2018-02-03T06:08:51.804Z,13.83
2018-02-03T06:11:20.157Z,17.70
2018-02-03T06:13:47.741Z,18.37
2018-02-03T06:16:16.116Z,15.57
2018-02-03T06:18:44.558Z,15.67
2018-02-03T06:21:12.237Z,18.30
2018-02-03T06:23:39.813Z,18.90
2018-02-03T06:26:07.423Z,20.57
2018-02-03T06:28:35.065Z,17.43
2018-02-03T06:31:02.663Z,18.13
2018-02-03T06:33:30.261Z,17.57
2018-02-03T06:35:58.684Z,17.20
2018-02-03T06:38:26.286Z,20.23
2018-02-03T06:40:53.905Z,19.13
2018-02-03T06:43:21.707Z,19.43
2018-02-03T06:45:49.257Z,17.30
2018-02-03T06:48:16.868Z,19.00
2018-02-03T06:50:44.509Z,16.47
2018-02-03T06:53:12.100Z,14.17
2018-02-03T06:55:39.740Z,14.03
2018-02-03T06:58:08.110Z,15.33
2018-02-03T07:00:36.464Z,16.20
2018-02-03T07:03:04.225Z,15.20
2018-02-03T07:05:31.861Z,11.50
2018-02-03T07:07:59.602Z,12.83
2018-02-03T07:10:27.196Z,11.13
2018-02-03T07:12:55.557Z,12.47
2018-02-03T07:15:23.203Z,14.33
2018-02-03T07:17:50.860Z,8.50
2018-02-03T07:20:18.462Z,10.13
2018-02-03T07:22:46.061Z,10.30
2018-02-03T07:25:14.425Z,7.80
2018-02-03T07:27:42.017Z,9.00
2018-02-03T07:30:09.608Z,15.23
2018-02-03T07:32:37.226Z,12.00
2018-02-03T07:35:05.585Z,17.13
2018-02-03T07:37:33.165Z,8.77
2018-02-03T07:40:01.547Z,10.40
2018-02-03T07:42:29.135Z,9.97
2018-02-03T07:44:56.713Z,13.47
2018-02-03T07:47:24.307Z,11.97
2018-02-03T07:49:51.886Z,20.00
2018-02-03T07:52:20.261Z,18.17
2018-02-03T07:54:48.614Z,13.37
2018-02-03T07:57:16.213Z,12.90
2018-02-03T07:59:43.808Z,17.60
2018-02-03T08:02:11.414Z,27.27
2018-02-03T08:04:39.761Z,17.83
2018-02-03T08:07:07.345Z,10.93
2018-02-03T08:09:35.718Z,14.53
2018-02-03T08:12:03.338Z,13.03
2018-02-03T08:14:30.941Z,14.63
2018-02-03T08:16:59.349Z,13.30
2018-02-03T08:19:26.930Z,11.37
2018-02-03T08:21:54.535Z,11.23
2018-02-03T08:24:22.155Z,14.93
2018-02-03T08:26:49.731Z,11.37
2018-02-03T08:29:17.333Z,11.43
2018-02-03T08:31:45.772Z,9.97
2018-02-03T08:34:13.346Z,9.43
2018-02-03T08:36:40.984Z,9.40
2018-02-03T08:39:08.575Z,10.57
2018-02-03T08:41:36.172Z,12.33
2018-02-03T08:44:03.977Z,11.20
2018-02-03T08:46:31.563Z,9.20
2018-02-03T08:48:59.930Z,9.23
2018-02-03T08:51:27.515Z,11.40
2018-02-03T08:53:55.884Z,11.50
2018-02-03T08:56:24.308Z,8.57
2018-02-03T08:58:51.904Z,8.73
2018-02-03T09:01:19.530Z,8.03
2018-02-03T09:03:47.189Z,7.93
2018-02-03T09:06:14.763Z,9.60
2018-02-03T09:08:42.385Z,9.67
2018-02-03T09:11:10.819Z,8.03
2018-02-03T09:13:38.406Z,9.07
2018-02-03T09:16:06.016Z,9.90
2018-02-03T09:18:33.623Z,9.83
2018-02-03T09:21:01.220Z,7.43
2018-02-03T09:23:28.787Z,9.97
2018-02-03T09:25:56.416Z,8.53
2018-02-03T09:28:24.847Z,10.37
2018-02-03T09:30:52.450Z,10.53
2018-02-03T09:33:20.793Z,9.87
2018-02-03T09:35:48.405Z,9.17
2018-02-03T09:38:16.836Z,8.07
2018-02-03T09:40:44.433Z,9.50
2018-02-03T09:43:12.777Z,10.57
2018-02-03T09:45:40.413Z,8.33
2018-02-03T09:48:07.987Z,9.00
2018-02-03T09:50:35.585Z,6.87
2018-02-03T09:53:03.934Z,7.20
2018-02-03T09:55:31.528Z,8.67
2018-02-03T09:58:00.008Z,10.07
2018-02-03T10:00:28.386Z,8.63
2018-02-03T10:02:56.746Z,6.23
2018-02-03T10:05:24.325Z,6.50
2018-02-03T10:07:52.740Z,10.33
2018-02-03T10:10:20.344Z,6.27
2018-02-03T10:12:47.933Z,7.10
2018-02-03T10:15:16.298Z,6.27
2018-02-03T10:17:43.936Z,6.37
2018-02-03T10:20:11.505Z,6.73
2018-02-03T10:22:39.175Z,5.93
2018-02-03T10:25:06.711Z,6.20
2018-02-03T10:27:34.333Z,6.63
2018-02-03T10:30:02.030Z,6.63
2018-02-03T10:32:29.616Z,5.90
2018-02-03T10:34:57.191Z,31.00
2018-02-03T10:37:25.625Z,9.00
2018-02-03T10:39:54.082Z,7.07
2018-02-03T10:42:21.685Z,6.87
2018-02-03T10:44:49.287Z,8.57
2018-02-03T10:47:16.921Z,6.53
2018-02-03T10:49:44.517Z,8.37
2018-02-03T10:52:12.112Z,6.40
2018-02-03T10:54:39.790Z,7.67
2018-02-03T10:57:07.401Z,6.67
2018-02-03T10:59:34.984Z,9.20
2018-02-03T11:02:02.596Z,5.87
2018-02-03T11:04:30.945Z,6.20
2018-02-03T11:06:58.546Z,8.40
2018-02-03T11:09:26.120Z,5.67
2018-02-03T11:11:53.729Z,12.90
2018-02-03T11:14:21.306Z,7.37
2018-02-03T11:16:49.685Z,7.57
2018-02-03T11:19:18.033Z,8.90
2018-02-03T11:21:45.609Z,9.87
2018-02-03T11:24:13.213Z,6.10
2018-02-03T11:26:40.810Z,6.50
2018-02-03T11:29:08.398Z,8.10
2018-02-03T11:31:36.020Z,8.80
2018-02-03T11:34:03.620Z,7.83
2018-02-03T11:36:31.365Z,7.60
2018-02-03T11:38:59.115Z,7.57
2018-02-03T11:41:26.692Z,6.70
2018-02-03T11:43:54.284Z,7.60
2018-02-03T11:46:22.621Z,7.57
2018-02-03T11:48:50.220Z,5.60
2018-02-03T11:51:18.627Z,6.00
2018-02-03T11:53:46.214Z,6.37
2018-02-03T11:56:13.804Z,8.47
2018-02-03T11:58:41.414Z,7.00
2018-02-03T12:01:09.009Z,7.33
2018-02-03T12:03:36.616Z,9.30
2018-02-03T12:06:04.175Z,6.83
2018-02-03T12:08:31.792Z,6.90
2018-02-03T12:10:59.365Z,6.57
2018-02-03T12:13:26.955Z,6.23
2018-02-03T12:15:54.536Z,5.00
2018-02-03T12:18:22.114Z,5.87
2018-02-03T12:20:49.760Z,5.97
2018-02-03T12:23:17.342Z,6.07
2018-02-03T12:25:44.968Z,5.90
2018-02-03T12:28:12.597Z,4.93
2018-02-03T12:30:40.937Z,5.53
2018-02-03T12:33:09.312Z,4.73
2018-02-03T12:35:36.892Z,5.13
2018-02-03T12:38:04.573Z,5.03
2018-02-03T12:40:32.934Z,7.13
2018-02-03T12:43:00.533Z,4.57
2018-02-03T12:45:28.109Z,6.10
2018-02-03T12:47:55.713Z,3.97
2018-02-03T12:50:23.326Z,3.83
2018-02-03T12:52:50.933Z,6.13
2018-02-03T12:55:18.517Z,4.73
2018-02-03T12:57:46.901Z,6.00
2018-02-03T13:00:15.249Z,6.90
2018-02-03T13:02:42.861Z,4.97
2018-02-03T13:05:10.437Z,4.73
2018-02-03T13:07:38.040Z,7.17
2018-02-03T13:10:05.617Z,4.73
2018-02-03T13:12:33.976Z,5.27
2018-02-03T13:15:01.562Z,5.97
2018-02-03T13:17:29.905Z,4.07
2018-02-03T13:19:57.501Z,5.67
2018-02-03T13:22:25.836Z,5.63
2018-02-03T13:24:53.436Z,6.23
2018-02-03T13:27:21.803Z,5.90
2018-02-03T13:29:50.136Z,5.03
2018-02-03T13:32:17.737Z,6.87
2018-02-03T13:34:46.108Z,4.30
2018-02-03T13:37:13.711Z,5.10
2018-02-03T13:39:41.284Z,4.60
2018-02-03T13:42:09.327Z,6.97
2018-02-03T13:44:36.901Z,5.10
2018-02-03T13:47:04.550Z,4.47
2018-02-03T13:49:32.121Z,5.53
2018-02-03T13:51:59.732Z,7.33
2018-02-03T13:54:27.309Z,7.73
2018-02-03T13:56:55.925Z,13.93
2018-02-03T13:59:23.551Z,9.07
2018-02-03T14:01:51.888Z,7.37
2018-02-03T14:04:19.570Z,5.77
2018-02-03T14:06:47.161Z,5.10
2018-02-03T14:09:15.508Z,6.20
2018-02-03T14:11:43.144Z,6.87
2018-02-03T14:14:10.756Z,6.37
2018-02-03T14:16:39.097Z,8.40
2018-02-03T14:19:06.701Z,15.37
2018-02-03T14:21:35.045Z,12.50
2018-02-03T14:24:08.213Z,8.80
2018-02-03T14:26:35.807Z,7.33
2018-02-03T14:29:03.384Z,6.83
2018-02-03T14:31:31.752Z,9.77
2018-02-03T14:34:00.150Z,7.53
2018-02-03T14:36:27.755Z,11.93
2018-02-03T14:38:55.325Z,8.10
2018-02-03T14:41:22.908Z,10.07
2018-02-03T14:43:50.492Z,7.87
2018-02-03T14:46:18.843Z,8.77
2018-02-03T14:48:46.461Z,7.13
2018-02-03T14:51:14.073Z,8.57
2018-02-03T14:53:44.239Z,8.77
2018-02-03T14:56:12.998Z,6.23
2018-02-03T14:58:41.361Z,8.53
2018-02-03T15:01:09.720Z,9.90
2018-02-03T15:03:37.312Z,10.27
2018-02-03T15:06:05.672Z,10.97
2018-02-03T15:08:34.032Z,10.13
2018-02-03T15:11:01.601Z,9.67
2018-02-03T15:13:29.189Z,7.60
2018-02-03T15:15:57.617Z,10.83
2018-02-03T15:18:25.200Z,11.67
2018-02-03T15:20:52.800Z,8.77
2018-02-03T15:23:20.378Z,12.60
2018-02-03T15:25:48.001Z,10.40
2018-02-03T15:28:16.338Z,8.47
2018-02-03T15:30:43.973Z,10.80
2018-02-03T15:33:11.546Z,9.93
2018-02-03T15:35:39.149Z,14.33
2018-02-03T15:38:07.517Z,9.27
2018-02-03T15:40:35.141Z,9.83
2018-02-03T15:43:02.713Z,10.00
2018-02-03T15:45:31.153Z,11.43
2018-02-03T15:47:58.749Z,9.40
2018-02-03T15:50:26.324Z,8.83
2018-02-03T15:52:53.968Z,6.83
2018-02-03T15:55:21.537Z,6.73
2018-02-03T15:57:49.136Z,8.03
2018-02-03T16:00:17.481Z,6.77
2018-02-03T16:02:45.078Z,8.97
2018-02-03T16:05:13.421Z,8.03
2018-02-03T16:07:41.065Z,8.63
2018-02-03T16:10:09.448Z,7.97
2018-02-03T16:12:37.029Z,7.43
2018-02-03T16:15:04.662Z,10.20
2018-02-03T16:17:32.242Z,8.97
2018-02-03T16:19:59.857Z,9.53
2018-02-03T16:22:27.484Z,9.40
2018-02-03T16:24:55.090Z,9.13
2018-02-03T16:27:22.697Z,10.30
2018-02-03T16:29:50.297Z,5.53
2018-02-03T16:32:17.900Z,10.90
2018-02-03T16:34:45.485Z,11.80
2018-02-03T16:37:13.095Z,6.97
2018-02-03T16:39:40.682Z,8.83
2018-02-03T16:42:08.288Z,7.43
2018-02-03T16:44:36.628Z,9.13
2018-02-03T16:47:04.209Z,8.50
2018-02-03T16:49:32.593Z,15.23
2018-02-03T16:52:00.941Z,14.07
2018-02-03T16:54:28.549Z,15.20
2018-02-03T16:56:56.197Z,20.87
2018-02-03T16:59:24.601Z,17.50
2018-02-03T17:01:52.176Z,13.83
2018-02-03T17:04:19.825Z,12.23
2018-02-03T17:06:47.404Z,11.73
2018-02-03T17:09:15.026Z,13.67
2018-02-03T17:11:42.620Z,15.17
2018-02-03T17:14:10.236Z,14.50
2018-02-03T17:16:38.577Z,15.67
2018-02-03T17:19:06.219Z,12.10
2018-02-03T17:21:33.913Z,13.97
2018-02-03T17:24:01.506Z,13.03
2018-02-03T17:26:29.877Z,13.07
2018-02-03T17:28:58.217Z,11.57
2018-02-03T17:31:25.813Z,14.43
2018-02-03T17:33:54.176Z,14.10
2018-02-03T17:36:27.241Z,20.73
2018-02-03T17:39:00.387Z,20.30
2018-02-03T17:41:27.978Z,15.77
2018-02-03T17:43:55.571Z,15.30
2018-02-03T17:46:28.707Z,14.63
2018-02-03T17:48:56.343Z,14.20
2018-02-03T17:51:24.729Z,16.03
2018-02-03T17:53:52.318Z,18.13
2018-02-03T17:56:25.604Z,36.90
2018-02-03T17:58:53.193Z,24.53
2018-02-03T18:01:20.817Z,17.77
2018-02-03T18:03:48.402Z,21.57
2018-02-03T18:06:16.001Z,18.80
2018-02-03T18:08:43.601Z,16.63
2018-02-03T18:11:11.202Z,16.07
2018-02-03T18:13:38.819Z,18.37
2018-02-03T18:16:06.402Z,17.17
2018-02-03T18:18:34.041Z,19.07
2018-02-03T18:21:01.678Z,17.20
2018-02-03T18:23:30.049Z,15.43
2018-02-03T18:25:58.455Z,16.67
2018-02-03T18:28:26.179Z,16.03
2018-02-03T18:30:53.786Z,13.77
2018-02-03T18:33:21.414Z,14.13
2018-02-03T18:35:49.789Z,12.20
2018-02-03T18:38:18.243Z,13.70
2018-02-03T18:40:47.688Z,14.37
2018-02-03T18:43:16.059Z,13.60
2018-02-03T18:45:46.361Z,12.80
2018-02-03T18:48:14.044Z,14.93
2018-02-03T18:50:42.480Z,14.73
2018-02-03T18:53:10.076Z,16.10
2018-02-03T18:55:37.719Z,13.23
2018-02-03T18:58:05.328Z,15.63
2018-02-03T19:00:32.914Z,15.40
2018-02-03T19:03:00.644Z,38.20
2018-02-03T19:05:28.247Z,36.00
2018-02-03T19:07:55.857Z,18.00
2018-02-03T19:10:24.221Z,18.97
2018-02-03T19:12:51.819Z,14.70
2018-02-03T19:15:19.413Z,14.63
2018-02-03T19:17:47.029Z,15.40
2018-02-03T19:20:14.631Z,15.30
2018-02-03T19:22:43.011Z,14.27
2018-02-03T19:25:10.609Z,22.47
2018-02-03T19:27:38.997Z,23.87
2018-02-03T19:30:07.467Z,25.27
2018-02-03T19:32:35.854Z,28.37
2018-02-03T19:35:04.276Z,25.93
2018-02-03T19:37:31.952Z,17.07
2018-02-03T19:39:59.532Z,13.83
2018-02-03T19:42:27.133Z,13.23
2018-02-03T19:44:54.769Z,15.10
2018-02-03T19:47:23.141Z,16.73
2018-02-03T19:49:51.545Z,15.53
2018-02-03T19:52:19.145Z,14.90
2018-02-03T19:54:46.758Z,15.87
2018-02-03T19:57:15.233Z,14.73
2018-02-03T19:59:43.719Z,15.60
2018-02-03T20:02:12.085Z,17.47
2018-02-03T20:04:40.449Z,19.20
2018-02-03T20:07:08.045Z,16.43
2018-02-03T20:09:35.667Z,18.30
2018-02-03T20:12:04.038Z,15.77
2018-02-03T20:14:31.645Z,16.63
2018-02-03T20:16:59.277Z,16.60
2018-02-03T20:19:27.662Z,18.30
2018-02-03T20:21:56.013Z,15.27
2018-02-03T20:24:23.654Z,16.43
2018-02-03T20:26:51.429Z,17.60
2018-02-03T20:29:19.023Z,17.30
2018-02-03T20:31:47.402Z,21.77
2018-02-03T20:34:16.250Z,16.73
2018-02-03T20:36:43.906Z,16.17
2018-02-03T20:39:11.550Z,17.20
2018-02-03T20:41:39.444Z,18.03
2018-02-03T20:44:07.297Z,17.70
2018-02-03T20:46:35.121Z,20.17
2018-02-03T20:49:02.932Z,24.43
2018-02-03T20:51:30.531Z,23.70
2018-02-03T20:53:58.176Z,26.23
2018-02-03T20:56:25.792Z,29.03
2018-02-03T20:58:53.504Z,23.27
2018-02-03T21:01:21.109Z,24.03
2018-02-03T21:03:48.724Z,23.67
2018-02-03T21:06:16.332Z,25.43
2018-02-03T21:08:43.956Z,19.00
2018-02-03T21:11:11.624Z,20.37
2018-02-03T21:13:40.080Z,19.07
2018-02-03T21:16:07.681Z,19.77
2018-02-03T21:18:36.045Z,18.63
2018-02-03T21:21:05.121Z,23.17
2018-02-03T21:23:33.038Z,23.60
2018-02-03T21:26:00.678Z,21.57
2018-02-03T21:28:29.048Z,18.50
2018-02-03T21:30:57.609Z,22.70
2018-02-03T21:33:25.187Z,19.03
2018-02-03T21:35:52.786Z,22.30
2018-02-03T21:38:20.431Z,21.40
2018-02-03T21:40:48.878Z,24.70
2018-02-03T21:43:16.489Z,28.47
2018-02-03T21:45:44.112Z,25.27
2018-02-03T21:48:12.487Z,21.67
2018-02-03T21:50:40.879Z,16.60
2018-02-03T21:53:09.280Z,19.07
2018-02-03T21:55:36.869Z,18.10
2018-02-03T21:58:04.486Z,15.93
2018-02-03T22:00:32.858Z,20.30
2018-02-03T22:03:01.242Z,26.30
2018-02-03T22:05:28.858Z,20.33
2018-02-03T22:07:56.450Z,17.83
2018-02-03T22:10:24.818Z,20.60
2018-02-03T22:12:52.398Z,20.53
2018-02-03T22:15:20.778Z,20.40
2018-02-03T22:17:49.134Z,16.50
2018-02-03T22:20:16.749Z,21.67
2018-02-03T22:22:44.349Z,20.57
2018-02-03T22:25:11.933Z,20.73
2018-02-03T22:27:40.318Z,22.47
2018-02-03T22:30:08.021Z,23.37
2018-02-03T22:32:35.890Z,23.13
2018-02-03T22:35:03.481Z,23.43
2018-02-03T22:37:31.118Z,24.77
2018-02-03T22:39:58.733Z,21.73
2018-02-03T22:42:26.357Z,22.87
2018-02-03T22:44:53.962Z,23.03
2018-02-03T22:47:21.599Z,23.83
2018-02-03T22:49:49.975Z,23.30
2018-02-03T22:52:18.364Z,23.03
2018-02-03T22:54:46.719Z,24.50
2018-02-03T22:57:14.329Z,22.43
2018-02-03T22:59:41.924Z,25.60
2018-02-03T23:02:09.522Z,25.37
2018-02-03T23:04:37.877Z,23.30
2018-02-03T23:07:05.489Z,24.43
2018-02-03T23:09:33.112Z,21.63
2018-02-03T23:12:01.465Z,23.43
2018-02-03T23:14:29.091Z,25.07
2018-02-03T23:16:56.740Z,24.43
2018-02-03T23:19:24.368Z,24.47
2018-02-03T23:21:52.730Z,28.13
2018-02-03T23:24:20.328Z,26.17
2018-02-03T23:26:47.933Z,25.83
2018-02-03T23:29:16.318Z,27.60
2018-02-03T23:31:43.939Z,27.67
2018-02-03T23:34:11.570Z,25.27
2018-02-03T23:36:39.956Z,25.30
2018-02-03T23:39:08.314Z,33.93
2018-02-03T23:41:35.917Z,27.50
2018-02-03T23:44:03.610Z,25.10
2018-02-03T23:46:31.993Z,26.90
2018-02-03T23:48:59.585Z,59.00
2018-02-03T23:51:27.214Z,41.43
2018-02-03T23:53:54.789Z,31.77
2018-02-03T23:56:22.402Z,29.07
2018-02-03T23:58:49.993Z,30.10
